aviador You're here:

KLUX Decoded Metar

LAURENS CTY in SC, USA
Report Time2017-04-25 06:35:00
UTC Time2017-04-25 06:37:27
Flight Rules mvfr MVFR
WindCalm
Visibility9999 m
Phenomena:N/A
Clouds:Overcast 012 Hf
Ceiling1,200 ft
Temp12°C (ISA -2)
Dew Point12°C (100% RH)
QNH1005 hPa
Density Alt971 ft
Elevation699 ft
Report Wrong Elevation
Raw Report
KLUX 250635Z AUTO 00000KT 10SM OVC012 12/12 A2969 RMK AO2=

Extra information for KLUX:More info

Metar Taf Metar & Taf Last 4 Metars F.Rules Stats Wind Profile Meteogram Temp Stats Airport Information Weather charts Add Link Nearby VenuesMetar ALERT Operation Metar Decoded Social comments

AIRNAV info for KLUX